Albelo Primero — ECMU — position and weather

sailwx.info

Track history (hours):
 
Tides and Currents Weather Stations Pressure Air Temp Water Temp Dewpoint Dewpoint Depression Visibility Wind Speed Wind Dir Waves Ship Positions

Albelo Primero

Last reported at 2016-Jul-24 09:33 UTC. Time now 2016-Jul-25 00:19 UTC.
Position N 47°36' W 004°59'.

Length 32 m; draft 3.5 m.

Type: Fishing. MMSI: 225360000.

Date/timePositionNaut miles runAvg speedWind from/ knotsBaromVisibWave heightAir tempDewpointWater temp
2016-Jul-24 09:33N 47°36' W 004°59'1 0.1
2016-Jul-24 05:31N 47°36' W 004°58'2 2.4
2016-Jul-24 04:33N 47°34' W 004°59'9 7.8
2016-Jul-24 03:25N 47°32' W 005°12'4 4.7
2016-Jul-24 02:34N 47°36' W 005°12'9 9.4
2016-Jul-24 01:33N 47°36' W 004°58'5 4.9
2016-Jul-24 00:30N 47°31' W 005°02'1 1.1
2016-Jul-23 23:32N 47°30' W 005°03'1 1.3
2016-Jul-23 22:28N 47°30' W 005°05'1 1.0
2016-Jul-23 21:32N 47°30' W 005°06'5 1.1
2016-Jul-23 16:26N 47°35' W 005°10'1 1.3
2016-Jul-23 15:33N 47°35' W 005°09'2 1.4
2016-Jul-23 14:06N 47°35' W 005°06'3 1.5
2016-Jul-23 12:11N 47°35' W 005°02'1 1.4
2016-Jul-23 11:33N 47°35' W 005°00'1 1.3
2016-Jul-23 10:33N 47°34' W 004°58'1 1.3
2016-Jul-23 09:33N 47°35' W 004°57'2 0.8
2016-Jul-23 07:21N 47°36' W 004°54'1 0.9
2016-Jul-23 06:26N 47°36' W 004°55'13 1.8
2016-Jul-22 23:33N 47°30' W 005°12'2 1.6
2016-Jul-22 22:25N 47°30' W 005°10'2 1.7
2016-Jul-22 21:25N 47°30' W 005°07'7 0.7
2016-Jul-22 11:26N 47°35' W 004°60'1 1.2
2016-Jul-22 10:30N 47°35' W 004°58'1 1.1
2016-Jul-22 09:34N 47°36' W 004°57'1 1.1
2016-Jul-22 08:32N 47°35' W 004°55'9 1.4
2016-Jul-22 02:28N 47°36' W 005°08'10 4.9
2016-Jul-22 00:29N 47°28' W 005°01'1 1.2
2016-Jul-21 23:20N 47°27' W 005°02'8 1.2
2016-Jul-21 16:32N 47°31' W 005°13'1 1.2
2016-Jul-21 15:20N 47°31' W 005°11'1 1.2
2016-Jul-21 14:23N 47°31' W 005°10'1 1.1
2016-Jul-21 13:33N 47°31' W 005°09'8 1.1
2016-Jul-21 06:29N 47°32' W 004°57'2 1.2
2016-Jul-21 04:31N 47°30' W 004°59'6 0.4
2016-Jul-20 13:19N 47°28' W 005°07'2 1.3
2016-Jul-20 11:32N 47°28' W 005°04'1 1.3
2016-Jul-20 10:32N 47°28' W 005°02'1 1.0
2016-Jul-20 09:33N 47°29' W 005°00'3 1.9
2016-Jul-20 08:05N 47°26' W 004°59'0 0.7
2016-Jul-20 07:33N 47°26' W 004°59'1 0.9
2016-Jul-20 06:10N 47°27' W 004°59'1 1.1
2016-Jul-20 05:33N 47°28' W 004°59'4 3.3
2016-Jul-20 04:16N 47°24' W 004°58'5 7.6
2016-Jul-20 03:33N 47°24' W 005°06'6 6.2
2016-Jul-20 02:33N 47°28' W 005°13'9 8.7
2016-Jul-20 01:33N 47°29' W 005°00'7 6.8
2016-Jul-20 00:33N 47°23' W 004°54'9 9.5
2016-Jul-19 23:33N 47°16' W 004°45'11 9.4
2016-Jul-19 22:20N 47°07' W 004°34'2 1.8
2016-Jul-19 21:08N 47°06' W 004°31'1 1.5
2016-Jul-19 20:12N 47°07' W 004°29'2 1.5
2016-Jul-19 19:07N 47°07' W 004°26'1 1.7
2016-Jul-19 18:19N 47°07' W 004°24'1 1.6
2016-Jul-19 17:29N 47°07' W 004°22'2 1.5
2016-Jul-19 16:28N 47°07' W 004°20'2 1.6
2016-Jul-19 15:32N 47°07' W 004°18'1 1.4
2016-Jul-19 14:29N 47°07' W 004°16'1 1.4
2016-Jul-19 13:31N 47°07' W 004°14'1 1.5
2016-Jul-19 12:34N 47°07' W 004°12'2 1.6
2016-Jul-19 11:34N 47°07' W 004°09'1 1.4
2016-Jul-19 10:34N 47°07' W 004°07'1 1.3
2016-Jul-19 09:34N 47°07' W 004°05'0 0.3
2016-Jul-19 08:34N 47°07' W 004°06'1 1.0
2016-Jul-19 07:34N 47°08' W 004°07'2 0.6
2016-Jul-19 04:34N 47°07' W 004°04'8 7.7
2016-Jul-19 03:33N 47°07' W 004°16'8 7.7
2016-Jul-19 02:32N 47°07' W 004°28'12 9.6
2016-Jul-19 01:18N 47°10' W 004°44'810.4
2016-Jul-19 00:34N 47°13' W 004°55'1310.4
2016-Jul-18 23:16N 47°18' W 005°13'2 2.2
2016-Jul-18 22:30N 47°18' W 005°16'2 1.6
2016-Jul-18 21:31N 47°18' W 005°13'7 1.7
2016-Jul-18 17:29N 47°18' W 005°04'3 3.1
2016-Jul-18 16:30N 47°21' W 005°02'8 1.4
2016-Jul-18 10:31N 47°21' W 005°14'5 1.4
2016-Jul-18 07:05N 47°18' W 005°20'1 1.4
2016-Jul-18 06:13N 47°19' W 005°19'2 1.3
2016-Jul-18 04:29N 47°21' W 005°18'31 2.1
2016-Jul-17 13:32N 47°04' W 004°40'2 1.7
2016-Jul-17 12:29N 47°02' W 004°38'3 1.4
2016-Jul-17 10:28N 47°02' W 004°42'5 0.7
2016-Jul-17 04:14N 47°07' W 004°44'6 2.8
2016-Jul-17 02:05N 47°03' W 004°38'17 5.6
2016-Jul-16 23:05N 47°04' W 005°03'1 1.4
2016-Jul-16 22:20N 47°04' W 005°01'13 1.4
2016-Jul-16 13:30N 47°04' W 004°42'1 1.0
2016-Jul-16 12:20N 47°04' W 004°41'1 1.4
2016-Jul-16 11:34N 47°04' W 004°39'1 1.3
2016-Jul-16 10:34N 47°04' W 004°37'1 1.2
2016-Jul-16 09:33N 47°04' W 004°35'6 6.6
2016-Jul-16 08:34N 47°04' W 004°45'7 7.1
2016-Jul-16 07:33N 47°02' W 004°55'1 1.2
2016-Jul-16 06:33N 47°02' W 004°53'3 1.4
2016-Jul-16 04:26N 47°04' W 004°56'1 1.2
2016-Jul-16 03:22N 47°04' W 004°58'8 9.5
2016-Jul-16 02:33N 47°04' W 004°47'8 8.1
2016-Jul-16 01:31N 47°04' W 004°35'3 1.0
2016-Jul-15 22:27N 47°04' W 004°40'7 2.3
2016-Jul-15 19:32N 46°59' W 004°33'8 8.5
2016-Jul-15 18:32N 46°54' W 004°23'17 8.5
2016-Jul-15 16:33N 46°44' W 004°03'  
Track history (hours):
 
Tides and Currents Weather Stations Pressure Air Temp Water Temp Dewpoint Dewpoint Depression Visibility Wind Speed Wind Dir Waves Ship Positions

Albelo Primero

Last reported at 2016-Jul-24 09:33 UTC. Time now 2016-Jul-25 00:19 UTC.
Position N 47°36' W 004°59'.

Length 32 m; draft 3.5 m.

Type: Fishing. MMSI: 225360000.

Date/timePositionNaut miles runAvg speedWind from/ knotsBaromVisibWave heightAir tempDewpointWater temp
2016-Jul-24 09:33N 47°36' W 004°59'1 0.1
2016-Jul-24 05:31N 47°36' W 004°58'2 2.4
2016-Jul-24 04:33N 47°34' W 004°59'9 7.8
2016-Jul-24 03:25N 47°32' W 005°12'4 4.7
2016-Jul-24 02:34N 47°36' W 005°12'9 9.4
2016-Jul-24 01:33N 47°36' W 004°58'5 4.9
2016-Jul-24 00:30N 47°31' W 005°02'1 1.1
2016-Jul-23 23:32N 47°30' W 005°03'1 1.3
2016-Jul-23 22:28N 47°30' W 005°05'1 1.0
2016-Jul-23 21:32N 47°30' W 005°06'5 1.1
2016-Jul-23 16:26N 47°35' W 005°10'1 1.3
2016-Jul-23 15:33N 47°35' W 005°09'2 1.4
2016-Jul-23 14:06N 47°35' W 005°06'3 1.5
2016-Jul-23 12:11N 47°35' W 005°02'1 1.4
2016-Jul-23 11:33N 47°35' W 005°00'1 1.3
2016-Jul-23 10:33N 47°34' W 004°58'1 1.3
2016-Jul-23 09:33N 47°35' W 004°57'2 0.8
2016-Jul-23 07:21N 47°36' W 004°54'1 0.9
2016-Jul-23 06:26N 47°36' W 004°55'13 1.8
2016-Jul-22 23:33N 47°30' W 005°12'2 1.6
2016-Jul-22 22:25N 47°30' W 005°10'2 1.7
2016-Jul-22 21:25N 47°30' W 005°07'7 0.7
2016-Jul-22 11:26N 47°35' W 004°60'1 1.2
2016-Jul-22 10:30N 47°35' W 004°58'1 1.1
2016-Jul-22 09:34N 47°36' W 004°57'1 1.1
2016-Jul-22 08:32N 47°35' W 004°55'9 1.4
2016-Jul-22 02:28N 47°36' W 005°08'10 4.9
2016-Jul-22 00:29N 47°28' W 005°01'1 1.2
2016-Jul-21 23:20N 47°27' W 005°02'8 1.2
2016-Jul-21 16:32N 47°31' W 005°13'1 1.2
2016-Jul-21 15:20N 47°31' W 005°11'1 1.2
2016-Jul-21 14:23N 47°31' W 005°10'1 1.1
2016-Jul-21 13:33N 47°31' W 005°09'8 1.1
2016-Jul-21 06:29N 47°32' W 004°57'2 1.2
2016-Jul-21 04:31N 47°30' W 004°59'6 0.4
2016-Jul-20 13:19N 47°28' W 005°07'2 1.3
2016-Jul-20 11:32N 47°28' W 005°04'1 1.3
2016-Jul-20 10:32N 47°28' W 005°02'1 1.0
2016-Jul-20 09:33N 47°29' W 005°00'3 1.9
2016-Jul-20 08:05N 47°26' W 004°59'0 0.7
2016-Jul-20 07:33N 47°26' W 004°59'1 0.9
2016-Jul-20 06:10N 47°27' W 004°59'1 1.1
2016-Jul-20 05:33N 47°28' W 004°59'4 3.3
2016-Jul-20 04:16N 47°24' W 004°58'5 7.6
2016-Jul-20 03:33N 47°24' W 005°06'6 6.2
2016-Jul-20 02:33N 47°28' W 005°13'9 8.7
2016-Jul-20 01:33N 47°29' W 005°00'7 6.8
2016-Jul-20 00:33N 47°23' W 004°54'9 9.5
2016-Jul-19 23:33N 47°16' W 004°45'11 9.4
2016-Jul-19 22:20N 47°07' W 004°34'2 1.8
2016-Jul-19 21:08N 47°06' W 004°31'1 1.5
2016-Jul-19 20:12N 47°07' W 004°29'2 1.5
2016-Jul-19 19:07N 47°07' W 004°26'1 1.7
2016-Jul-19 18:19N 47°07' W 004°24'1 1.6
2016-Jul-19 17:29N 47°07' W 004°22'2 1.5
2016-Jul-19 16:28N 47°07' W 004°20'2 1.6
2016-Jul-19 15:32N 47°07' W 004°18'1 1.4
2016-Jul-19 14:29N 47°07' W 004°16'1 1.4
2016-Jul-19 13:31N 47°07' W 004°14'1 1.5
2016-Jul-19 12:34N 47°07' W 004°12'2 1.6
2016-Jul-19 11:34N 47°07' W 004°09'1 1.4
2016-Jul-19 10:34N 47°07' W 004°07'1 1.3
2016-Jul-19 09:34N 47°07' W 004°05'0 0.3
2016-Jul-19 08:34N 47°07' W 004°06'1 1.0
2016-Jul-19 07:34N 47°08' W 004°07'2 0.6
2016-Jul-19 04:34N 47°07' W 004°04'8 7.7
2016-Jul-19 03:33N 47°07' W 004°16'8 7.7
2016-Jul-19 02:32N 47°07' W 004°28'12 9.6
2016-Jul-19 01:18N 47°10' W 004°44'810.4
2016-Jul-19 00:34N 47°13' W 004°55'1310.4
2016-Jul-18 23:16N 47°18' W 005°13'2 2.2
2016-Jul-18 22:30N 47°18' W 005°16'2 1.6
2016-Jul-18 21:31N 47°18' W 005°13'7 1.7
2016-Jul-18 17:29N 47°18' W 005°04'3 3.1
2016-Jul-18 16:30N 47°21' W 005°02'8 1.4
2016-Jul-18 10:31N 47°21' W 005°14'5 1.4
2016-Jul-18 07:05N 47°18' W 005°20'1 1.4
2016-Jul-18 06:13N 47°19' W 005°19'2 1.3
2016-Jul-18 04:29N 47°21' W 005°18'31 2.1
2016-Jul-17 13:32N 47°04' W 004°40'2 1.7
2016-Jul-17 12:29N 47°02' W 004°38'3 1.4
2016-Jul-17 10:28N 47°02' W 004°42'5 0.7
2016-Jul-17 04:14N 47°07' W 004°44'6 2.8
2016-Jul-17 02:05N 47°03' W 004°38'17 5.6
2016-Jul-16 23:05N 47°04' W 005°03'1 1.4
2016-Jul-16 22:20N 47°04' W 005°01'13 1.4
2016-Jul-16 13:30N 47°04' W 004°42'1 1.0
2016-Jul-16 12:20N 47°04' W 004°41'1 1.4
2016-Jul-16 11:34N 47°04' W 004°39'1 1.3
2016-Jul-16 10:34N 47°04' W 004°37'1 1.2
2016-Jul-16 09:33N 47°04' W 004°35'6 6.6
2016-Jul-16 08:34N 47°04' W 004°45'7 7.1
2016-Jul-16 07:33N 47°02' W 004°55'1 1.2
2016-Jul-16 06:33N 47°02' W 004°53'3 1.4
2016-Jul-16 04:26N 47°04' W 004°56'1 1.2
2016-Jul-16 03:22N 47°04' W 004°58'8 9.5
2016-Jul-16 02:33N 47°04' W 004°47'8 8.1
2016-Jul-16 01:31N 47°04' W 004°35'3 1.0
2016-Jul-15 22:27N 47°04' W 004°40'7 2.3
2016-Jul-15 19:32N 46°59' W 004°33'8 8.5
2016-Jul-15 18:32N 46°54' W 004°23'17 8.5
2016-Jul-15 16:33N 46°44' W 004°03'  

Dump ship's entire track history